createdAt,value
2022-11-28T00:00:53.914Z,99551.00
2022-11-28T00:02:51.999Z,99534.22
2022-11-28T00:04:50.002Z,99532.03
2022-11-28T00:06:49.343Z,99537.78
2022-11-28T00:08:47.441Z,99544.31
2022-11-28T00:10:45.408Z,99524.56
2022-11-28T00:12:43.436Z,99523.16
2022-11-28T00:14:41.710Z,99515.81
2022-11-28T00:16:39.939Z,99521.63
2022-11-28T00:18:37.938Z,99527.47
2022-11-28T00:20:35.980Z,99515.03
2022-11-28T00:22:34.067Z,99504.06
2022-11-28T00:24:32.066Z,99512.81
2022-11-28T00:26:30.009Z,99501.84
2022-11-28T00:28:28.067Z,99492.34
2022-11-28T00:30:26.065Z,99496.69
2022-11-28T00:32:24.068Z,99502.53
2022-11-28T00:34:22.102Z,99492.28
2022-11-28T00:36:20.093Z,99511.22
2022-11-28T00:38:18.122Z,99501.75
2022-11-28T00:40:17.231Z,99503.91
2022-11-28T00:42:16.599Z,99508.25
2022-11-28T00:44:14.585Z,99520.69
2022-11-28T00:46:12.798Z,99512.59
2022-11-28T00:48:10.858Z,99521.34
2022-11-28T00:50:08.912Z,99522.81
2022-11-28T00:52:06.938Z,99509.66
2022-11-28T00:54:04.966Z,99519.84
2022-11-28T00:56:02.986Z,99522.00
2022-11-28T00:58:01.043Z,99524.19
2022-11-28T00:59:59.019Z,99527.84
2022-11-28T01:01:57.112Z,99520.50
2022-11-28T01:03:55.157Z,99523.44
2022-11-28T01:05:53.164Z,99516.88
2022-11-28T01:07:51.185Z,99512.47
2022-11-28T01:09:49.452Z,99505.88
2022-11-28T01:11:48.970Z,99500.75
2022-11-28T01:13:47.004Z,99497.13
2022-11-28T01:15:45.033Z,99501.47
2022-11-28T01:17:43.075Z,99500.75
2022-11-28T01:19:41.077Z,99503.66
2022-11-28T01:21:40.159Z,99497.78
2022-11-28T01:23:38.319Z,99497.03
2022-11-28T01:25:36.335Z,99494.88
2022-11-28T01:27:35.390Z,99499.22
2022-11-28T01:29:33.401Z,99503.59
2022-11-28T01:31:31.479Z,99494.09
2022-11-28T01:33:29.519Z,99488.25
2022-11-28T01:35:27.685Z,99482.41
2022-11-28T01:37:25.742Z,99473.59
2022-11-28T01:39:24.860Z,99467.09
2022-11-28T01:41:22.880Z,99457.59
2022-11-28T01:43:20.888Z,99456.09
2022-11-28T01:45:18.960Z,99453.19
2022-11-28T01:47:16.982Z,99458.28
2022-11-28T01:49:15.048Z,99450.22
2022-11-28T01:51:13.053Z,99448.78
2022-11-28T01:53:11.088Z,99440.00
2022-11-28T01:55:09.074Z,99435.66
2022-11-28T01:57:07.069Z,99433.41
2022-11-28T01:59:05.100Z,99445.06
2022-11-28T02:01:03.231Z,99429.75
2022-11-28T02:03:01.273Z,99432.66
2022-11-28T02:04:59.239Z,99431.22
2022-11-28T02:06:57.250Z,99430.47
2022-11-28T02:08:55.345Z,99421.00
2022-11-28T02:10:53.328Z,99418.78
2022-11-28T02:12:51.291Z,99416.56
2022-11-28T02:14:49.332Z,99413.63
2022-11-28T02:16:47.461Z,99411.47
2022-11-28T02:18:50.285Z,99409.22
2022-11-28T02:20:48.501Z,99409.22
2022-11-28T02:22:46.554Z,99397.56
2022-11-28T02:24:44.641Z,99396.84
2022-11-28T02:26:42.888Z,99382.97
2022-11-28T02:28:40.846Z,99392.44
2022-11-28T02:30:38.837Z,99398.28
2022-11-28T02:32:36.787Z,99391.69
2022-11-28T02:34:34.795Z,99384.44
2022-11-28T02:36:32.805Z,99383.69
2022-11-28T02:38:30.854Z,99380.03
2022-11-28T02:40:29.273Z,99375.69
2022-11-28T02:42:27.276Z,99370.59
2022-11-28T02:44:25.285Z,99369.16
2022-11-28T02:46:23.445Z,99372.81
2022-11-28T02:48:21.547Z,99378.66
2022-11-28T02:50:19.579Z,99389.63
2022-11-28T02:52:17.893Z,99392.56
2022-11-28T02:54:15.890Z,99401.31
2022-11-28T02:56:13.911Z,99393.31
2022-11-28T02:58:12.177Z,99381.66
2022-11-28T03:00:15.115Z,99385.31
2022-11-28T03:02:15.645Z,99388.97
2022-11-28T03:04:13.691Z,99390.44
2022-11-28T03:06:11.776Z,99389.72
2022-11-28T03:08:09.773Z,99382.44
2022-11-28T03:10:07.809Z,99388.25
2022-11-28T03:12:05.851Z,99383.19
2022-11-28T03:14:03.882Z,99382.44
2022-11-28T03:16:02.023Z,99382.44
2022-11-28T03:18:00.284Z,99379.50
2022-11-28T03:19:58.270Z,99386.84
2022-11-28T03:21:56.236Z,99389.00
2022-11-28T03:23:54.364Z,99379.50
2022-11-28T03:25:52.330Z,99376.59
2022-11-28T03:27:50.409Z,99378.06
2022-11-28T03:29:48.472Z,99389.72
2022-11-28T03:31:46.623Z,99389.72
2022-11-28T03:33:44.635Z,99384.59
2022-11-28T03:35:42.688Z,99386.81
2022-11-28T03:37:40.675Z,99383.13
2022-11-28T03:39:38.742Z,99383.13
2022-11-28T03:41:37.089Z,99382.41
2022-11-28T03:43:35.421Z,99382.41
2022-11-28T03:45:33.387Z,99383.81
2022-11-28T03:47:31.419Z,99375.06
2022-11-28T03:49:29.428Z,99376.50
2022-11-28T03:51:26.501Z,99386.00
2022-11-28T03:53:24.478Z,99383.09
2022-11-28T03:55:22.686Z,99383.78
2022-11-28T03:57:20.720Z,99366.28
2022-11-28T03:59:18.761Z,99370.63
2022-11-28T04:01:16.800Z,99375.72
2022-11-28T04:03:14.894Z,99381.56
2022-11-28T04:05:12.940Z,99380.81
2022-11-28T04:07:10.899Z,99377.91
2022-11-28T04:09:12.985Z,99385.19
2022-11-28T04:11:12.504Z,99380.06
2022-11-28T04:13:10.616Z,99388.09
2022-11-28T04:15:08.837Z,99388.03
2022-11-28T04:17:06.818Z,99391.69
2022-11-28T04:19:05.733Z,99388.03
2022-11-28T04:21:03.748Z,99390.22
2022-11-28T04:23:01.791Z,99387.28
2022-11-28T04:24:59.874Z,99387.28
2022-11-28T04:26:57.935Z,99384.38
2022-11-28T04:28:55.930Z,99372.72
2022-11-28T04:30:53.940Z,99374.88
2022-11-28T04:32:51.973Z,99374.94
2022-11-28T04:34:50.066Z,99377.13
2022-11-28T04:36:48.086Z,99374.19
2022-11-28T04:38:49.507Z,99380.78
2022-11-28T04:40:47.546Z,99378.59
2022-11-28T04:42:49.910Z,99374.25
2022-11-28T04:46:48.517Z,99369.91
2022-11-28T04:48:46.510Z,99381.63
2022-11-28T04:50:44.726Z,99373.59
2022-11-28T04:52:42.745Z,99371.41
2022-11-28T04:54:41.152Z,99367.06
2022-11-28T04:56:39.463Z,99370.00
2022-11-28T04:58:37.671Z,99361.97
2022-11-28T05:00:35.889Z,99365.63
2022-11-28T05:02:33.988Z,99351.06
2022-11-28T05:04:32.040Z,99354.72
2022-11-28T05:06:30.030Z,99359.81
2022-11-28T05:08:28.050Z,99345.97
2022-11-28T05:10:26.049Z,99334.31
2022-11-28T05:12:24.069Z,99331.38
2022-11-28T05:14:22.276Z,99327.72
2022-11-28T05:16:20.302Z,99324.81
2022-11-28T05:18:18.346Z,99320.41
2022-11-28T05:20:16.421Z,99318.22
2022-11-28T05:22:14.405Z,99322.56
2022-11-28T05:24:12.409Z,99320.41
2022-11-28T05:26:10.380Z,99333.50
2022-11-28T05:28:08.365Z,99324.75
2022-11-28T05:30:06.388Z,99325.50
2022-11-28T05:32:04.444Z,99336.41
2022-11-28T05:34:02.588Z,99340.06
2022-11-28T05:36:00.585Z,99342.25
2022-11-28T05:37:58.558Z,99343.72
2022-11-28T05:39:56.598Z,99342.97
2022-11-28T05:41:54.556Z,99340.72
2022-11-28T05:43:52.561Z,99338.56
2022-11-28T05:45:50.891Z,99346.56
2022-11-28T05:47:48.940Z,99346.56
2022-11-28T05:49:47.123Z,99350.19
2022-11-28T05:51:45.096Z,99353.81
2022-11-28T05:53:43.347Z,99353.09
2022-11-28T05:55:41.395Z,99342.88
2022-11-28T05:57:39.540Z,99349.44
2022-11-28T05:59:37.730Z,99341.38
2022-11-28T06:01:36.008Z,99339.88
2022-11-28T06:03:34.084Z,99346.47
2022-11-28T06:05:47.226Z,99345.72
2022-11-28T06:07:45.862Z,99350.13
2022-11-28T06:09:44.200Z,99344.28
2022-11-28T06:11:42.426Z,99344.28
2022-11-28T06:13:40.466Z,99337.78
2022-11-28T06:15:38.765Z,99339.25
2022-11-28T06:17:36.799Z,99339.25
2022-11-28T06:19:34.831Z,99348.72
2022-11-28T06:23:30.841Z,99343.66
2022-11-28T06:25:28.852Z,99354.63
2022-11-28T06:27:26.943Z,99346.63
2022-11-28T06:29:24.902Z,99348.78
2022-11-28T06:31:22.958Z,99356.84
2022-11-28T06:33:21.030Z,99352.44
2022-11-28T06:35:19.120Z,99346.66
2022-11-28T06:37:17.140Z,99348.81
2022-11-28T06:39:15.342Z,99360.50
2022-11-28T06:41:13.442Z,99348.81
2022-11-28T06:43:11.463Z,99349.56
2022-11-28T06:45:09.764Z,99352.47
2022-11-28T06:47:07.771Z,99351.00
2022-11-28T06:49:05.756Z,99348.81
2022-11-28T06:51:04.066Z,99350.25
2022-11-28T06:53:02.151Z,99354.66
2022-11-28T06:55:00.169Z,99351.75
2022-11-28T06:56:58.425Z,99350.25
2022-11-28T06:58:56.504Z,99347.34
2022-11-28T07:00:54.576Z,99346.63
2022-11-28T07:02:52.716Z,99351.72
2022-11-28T07:04:50.786Z,99366.28
2022-11-28T07:08:46.902Z,99378.66
2022-11-28T07:10:44.966Z,99369.91
2022-11-28T07:12:42.978Z,99370.66
2022-11-28T07:14:40.977Z,99373.59
2022-11-28T07:16:39.039Z,99381.66
2022-11-28T07:18:37.058Z,99376.56
2022-11-28T07:20:35.038Z,99378.78
2022-11-28T07:22:33.085Z,99386.09
2022-11-28T07:24:31.561Z,99389.81
2022-11-28T07:26:29.877Z,99392.03
2022-11-28T07:28:28.083Z,99392.09
2022-11-28T07:30:26.122Z,99399.44
2022-11-28T07:32:24.505Z,99397.28
2022-11-28T07:34:22.562Z,99395.16
2022-11-28T07:36:20.599Z,99390.88
2022-11-28T07:38:18.688Z,99388.75
2022-11-28T07:40:18.555Z,99396.88
2022-11-28T07:42:16.681Z,99377.22
2022-11-28T07:44:17.811Z,99374.44
2022-11-28T07:46:16.039Z,99367.22
2022-11-28T07:48:14.080Z,99368.75
2022-11-28T07:50:12.035Z,99370.28
2022-11-28T07:52:10.121Z,99393.72
2022-11-28T07:54:08.082Z,99379.91
2022-11-28T07:56:06.370Z,99383.66
2022-11-28T07:58:04.474Z,99387.34
2022-11-28T08:00:02.508Z,99386.69
2022-11-28T08:02:00.945Z,99380.91
2022-11-28T08:03:59.060Z,99386.81
2022-11-28T08:06:01.417Z,99384.69
2022-11-28T08:08:00.305Z,99388.38
2022-11-28T08:09:58.426Z,99386.22
2022-11-28T08:11:56.449Z,99382.63
2022-11-28T08:13:56.538Z,99379.03
2022-11-28T08:15:56.129Z,99375.44
2022-11-28T08:17:54.245Z,99379.84
2022-11-28T08:19:52.405Z,99374.78
2022-11-28T08:21:50.373Z,99369.00
2022-11-28T08:23:48.361Z,99379.22
2022-11-28T08:25:46.316Z,99379.28
2022-11-28T08:27:44.562Z,99382.28
2022-11-28T08:29:42.976Z,99383.03
2022-11-28T08:31:41.177Z,99386.69
2022-11-28T08:33:39.465Z,99388.19
2022-11-28T08:35:37.525Z,99389.66
2022-11-28T08:37:35.492Z,99382.38
2022-11-28T08:39:34.107Z,99388.22
2022-11-28T08:41:32.119Z,99389.69
2022-11-28T08:43:30.298Z,99386.06
2022-11-28T08:45:28.468Z,99383.13
2022-11-28T08:47:26.596Z,99386.81
2022-11-28T08:49:24.619Z,99391.97
2022-11-28T08:51:23.851Z,99390.47
2022-11-28T08:53:21.878Z,99390.47
2022-11-28T08:55:23.676Z,99383.19
2022-11-28T08:57:29.635Z,99391.22
2022-11-28T08:59:27.917Z,99382.44
2022-11-28T09:01:26.066Z,99389.03
2022-11-28T09:03:24.159Z,99389.03
2022-11-28T09:05:22.210Z,99383.94
2022-11-28T09:07:20.245Z,99390.47
2022-11-28T09:09:18.288Z,99391.97
2022-11-28T09:11:17.185Z,99389.03
2022-11-28T09:13:15.264Z,99392.69
2022-11-28T09:15:13.459Z,99391.22
2022-11-28T09:17:11.630Z,99392.69
2022-11-28T09:19:10.751Z,99386.13
2022-11-28T09:21:09.395Z,99389.78
2022-11-28T09:23:07.498Z,99398.53
2022-11-28T09:25:05.481Z,99397.06
2022-11-28T09:27:03.459Z,99386.13
2022-11-28T09:29:01.506Z,99392.66
2022-11-28T09:30:59.577Z,99386.06
2022-11-28T09:32:57.562Z,99391.88
2022-11-28T09:34:55.624Z,99384.59
2022-11-28T09:36:53.656Z,99388.97
2022-11-28T09:38:51.619Z,99396.25
2022-11-28T09:40:49.774Z,99394.75
2022-11-28T09:42:47.890Z,99389.66
2022-11-28T09:44:45.870Z,99381.59
2022-11-28T09:46:43.942Z,99377.94
2022-11-28T09:48:41.953Z,99392.53
2022-11-28T09:50:39.965Z,99386.69
2022-11-28T09:52:38.029Z,99388.13
2022-11-28T09:54:36.173Z,99392.53
2022-11-28T09:56:34.183Z,99388.88
2022-11-28T09:58:32.254Z,99387.44
2022-11-28T10:00:30.336Z,99385.97
2022-11-28T10:02:28.322Z,99387.44
2022-11-28T10:04:26.369Z,99391.13
2022-11-28T10:06:24.667Z,99388.91
2022-11-28T10:08:22.672Z,99386.78
2022-11-28T10:10:20.630Z,99392.63
2022-11-28T10:12:18.672Z,99384.59
2022-11-28T10:14:17.344Z,99382.44
2022-11-28T10:16:15.462Z,99383.84
2022-11-28T10:18:14.637Z,99383.13
2022-11-28T10:20:12.693Z,99379.53
2022-11-28T10:22:10.722Z,99375.16
2022-11-28T10:24:08.789Z,99373.00
2022-11-28T10:26:06.782Z,99378.84
2022-11-28T10:28:04.831Z,99382.47
2022-11-28T10:30:03.072Z,99382.56
2022-11-28T10:32:01.805Z,99378.88
2022-11-28T10:33:59.790Z,99380.38
2022-11-28T10:35:57.819Z,99373.06
2022-11-28T10:37:55.805Z,99378.91
2022-11-28T10:39:53.834Z,99375.28
2022-11-28T10:42:11.510Z,99374.56
2022-11-28T10:44:09.537Z,99366.50
2022-11-28T10:46:08.127Z,99367.22
2022-11-28T10:48:37.229Z,99365.78
2022-11-28T10:50:26.900Z,99360.69
2022-11-28T10:52:27.392Z,99368.03
2022-11-28T10:54:25.495Z,99349.75
2022-11-28T10:56:23.509Z,99346.06
2022-11-28T10:58:21.518Z,99335.88
2022-11-28T11:00:19.657Z,99333.69
2022-11-28T11:02:17.998Z,99332.22
2022-11-28T11:04:16.014Z,99336.63
2022-11-28T11:06:14.097Z,99341.75
2022-11-28T11:08:12.207Z,99338.06
2022-11-28T11:10:10.328Z,99337.34
2022-11-28T11:12:08.368Z,99331.53
2022-11-28T11:14:06.409Z,99332.22
2022-11-28T11:16:04.576Z,99332.22
2022-11-28T11:18:02.675Z,99341.75
2022-11-28T11:20:00.718Z,99338.81
2022-11-28T11:21:58.714Z,99327.88
2022-11-28T11:23:56.718Z,99325.69
2022-11-28T11:25:54.846Z,99319.84
2022-11-28T11:27:52.836Z,99319.09
2022-11-28T11:29:51.708Z,99319.09
2022-11-28T11:31:49.913Z,99316.94
2022-11-28T11:33:48.044Z,99316.94
2022-11-28T11:35:46.023Z,99316.22
2022-11-28T11:37:44.037Z,99315.50
2022-11-28T11:39:42.660Z,99308.19
2022-11-28T11:41:41.214Z,99309.66
2022-11-28T11:43:39.266Z,99307.47
2022-11-28T11:45:37.285Z,99301.63
2022-11-28T11:47:35.326Z,99297.28
2022-11-28T11:49:33.347Z,99303.88
2022-11-28T11:51:35.241Z,99291.44
2022-11-28T11:53:37.236Z,99298.75
2022-11-28T11:55:35.281Z,99290.72
2022-11-28T11:57:34.412Z,99293.63
2022-11-28T11:59:32.778Z,99287.06
2022-11-28T12:01:30.876Z,99283.41
2022-11-28T12:03:29.055Z,99281.19
2022-11-28T12:05:27.938Z,99281.19
2022-11-28T12:07:26.012Z,99278.28
2022-11-28T12:09:24.073Z,99281.94
2022-11-28T12:11:22.074Z,99273.19
2022-11-28T12:13:20.113Z,99274.66
2022-11-28T12:15:18.588Z,99266.59
2022-11-28T12:17:46.715Z,99259.28
2022-11-28T12:19:34.641Z,99272.44
2022-11-28T12:21:32.688Z,99268.81
2022-11-28T12:23:30.719Z,99266.59
2022-11-28T12:25:28.713Z,99266.59
2022-11-28T12:27:26.692Z,99264.38
2022-11-28T12:29:24.723Z,99268.06
2022-11-28T12:31:22.784Z,99260.72
2022-11-28T12:33:20.881Z,99254.88
2022-11-28T12:35:18.917Z,99265.09
2022-11-28T12:37:16.982Z,99257.81
2022-11-28T12:39:15.209Z,99264.38
2022-11-28T12:41:13.449Z,99271.72
2022-11-28T12:43:11.486Z,99260.72
2022-11-28T12:45:09.510Z,99256.31
2022-11-28T12:47:07.525Z,99256.31
2022-11-28T12:49:05.558Z,99244.63
2022-11-28T12:51:03.567Z,99257.81
2022-11-28T12:53:01.720Z,99244.63
2022-11-28T12:54:59.686Z,99247.56
2022-11-28T12:56:58.217Z,99244.63
2022-11-28T12:58:56.315Z,99251.94
2022-11-28T13:00:54.433Z,99246.13
2022-11-28T13:02:52.529Z,99238.78
2022-11-28T13:04:50.730Z,99243.88
2022-11-28T13:06:49.012Z,99240.97
2022-11-28T13:08:49.096Z,99242.44
2022-11-28T13:10:47.645Z,99233.69
2022-11-28T13:12:46.710Z,99241.75
2022-11-28T13:14:45.015Z,99243.94
2022-11-28T13:16:43.239Z,99242.50
2022-11-28T13:18:41.265Z,99241.03
2022-11-28T13:20:42.023Z,99240.34
2022-11-28T13:22:40.066Z,99238.16
2022-11-28T13:24:38.141Z,99239.63
2022-11-28T13:26:36.320Z,99236.72
2022-11-28T13:28:35.403Z,99235.97
2022-11-28T13:30:33.501Z,99238.19
2022-11-28T13:32:31.544Z,99232.31
2022-11-28T13:34:29.568Z,99227.22
2022-11-28T13:39:00.213Z,99222.88
2022-11-28T13:41:03.581Z,99217.72
2022-11-28T13:43:07.110Z,99224.31
2022-11-28T13:45:07.344Z,99229.44
2022-11-28T13:47:05.443Z,99222.88
2022-11-28T13:49:14.234Z,99218.47
2022-11-28T13:51:18.614Z,99220.63
2022-11-28T13:53:17.931Z,99222.13
2022-11-28T13:55:17.937Z,99221.38
2022-11-28T13:57:19.016Z,99222.81
2022-11-28T13:59:17.192Z,99224.31
2022-11-28T14:50:20.740Z,99255.53
2022-11-28T14:52:38.326Z,99250.81
2022-11-28T14:54:36.780Z,99257.22
2022-11-28T14:56:34.826Z,99251.13
2022-11-28T14:58:32.865Z,99260.41
2022-11-28T15:00:30.884Z,99252.72
2022-11-28T15:02:28.996Z,99251.53
2022-11-28T15:04:27.217Z,99259.09
2022-11-28T15:06:25.425Z,99257.78
2022-11-28T15:08:23.686Z,99257.16
2022-11-28T15:10:21.660Z,99252.84
2022-11-28T15:12:19.633Z,99259.50
2022-11-28T15:14:17.655Z,99254.44
2022-11-28T15:16:15.701Z,99261.06
2022-11-28T15:18:13.928Z,99253.00
2022-11-28T15:20:12.376Z,99263.97
2022-11-28T15:22:10.335Z,99262.53
2022-11-28T15:24:08.368Z,99263.97
2022-11-28T15:26:06.920Z,99266.16
2022-11-28T15:28:05.067Z,99272.00
2022-11-28T15:30:04.469Z,99271.19
2022-11-28T15:32:02.521Z,99275.56
2022-11-28T15:34:00.510Z,99268.22
2022-11-28T15:35:58.497Z,99278.47
2022-11-28T15:37:57.252Z,99271.84
2022-11-28T15:39:55.313Z,99268.88
2022-11-28T15:41:53.457Z,99279.09
2022-11-28T15:43:51.751Z,99276.13
2022-11-28T15:45:49.720Z,99270.97
2022-11-28T15:47:49.220Z,99284.13
2022-11-28T15:49:48.307Z,99284.09
2022-11-28T15:51:46.278Z,99287.72
2022-11-28T15:53:44.322Z,99281.81
2022-11-28T15:55:42.418Z,99281.78
2022-11-28T15:57:40.447Z,99281.03
2022-11-28T15:59:38.551Z,99285.41
2022-11-28T16:01:36.628Z,99290.50
2022-11-28T16:03:35.068Z,99293.41
2022-11-28T16:05:33.087Z,99291.88
2022-11-28T16:07:32.044Z,99295.53
2022-11-28T16:09:30.113Z,99289.63
2022-11-28T16:11:28.350Z,99281.50
2022-11-28T16:13:26.343Z,99290.25
2022-11-28T16:15:24.364Z,99291.69
2022-11-28T16:17:22.405Z,99286.53
2022-11-28T16:19:20.430Z,99289.41
2022-11-28T16:21:18.455Z,99291.59
2022-11-28T16:23:16.689Z,99294.47
2022-11-28T16:25:14.662Z,99297.34
2022-11-28T16:27:12.614Z,99295.09
2022-11-28T16:29:10.799Z,99300.22
2022-11-28T16:31:08.779Z,99299.41
2022-11-28T16:33:06.848Z,99297.19
2022-11-28T16:35:04.988Z,99302.28
2022-11-28T16:37:02.963Z,99300.03
2022-11-28T16:39:00.979Z,99300.72
2022-11-28T16:41:00.224Z,99299.94
2022-11-28T16:42:58.935Z,99300.63
2022-11-28T16:44:57.248Z,99301.31
2022-11-28T16:46:55.220Z,99301.28
2022-11-28T16:48:53.201Z,99297.56
2022-11-28T16:50:51.200Z,99292.41
2022-11-28T16:52:49.357Z,99298.94
2022-11-28T16:54:47.402Z,99301.09
2022-11-28T16:56:45.529Z,99306.19
2022-11-28T16:58:43.691Z,99297.34
2022-11-28T17:00:42.052Z,99297.31
2022-11-28T17:02:40.056Z,99298.72
2022-11-28T17:04:38.106Z,99295.75
2022-11-28T17:06:37.465Z,99294.97
2022-11-28T17:08:35.557Z,99300.78
2022-11-28T17:10:33.581Z,99300.03
2022-11-28T17:12:35.464Z,99299.97
2022-11-28T17:14:33.552Z,99297.03
2022-11-28T17:16:33.371Z,99302.09
2022-11-28T17:18:31.589Z,99302.75
2022-11-28T17:20:29.564Z,99296.16
2022-11-28T17:22:27.571Z,99305.63
2022-11-28T17:24:25.579Z,99307.78
2022-11-28T17:26:23.566Z,99309.19
2022-11-28T17:28:25.265Z,99309.88
2022-11-28T17:30:25.936Z,99303.28
2022-11-28T17:32:23.984Z,99307.63
2022-11-28T17:34:22.063Z,99304.66
2022-11-28T17:36:20.128Z,99311.91
2022-11-28T17:38:18.143Z,99314.09
2022-11-28T17:40:36.439Z,99307.47
2022-11-28T17:42:34.427Z,99305.22
2022-11-28T17:44:32.458Z,99307.41
2022-11-28T17:46:30.530Z,99313.25
2022-11-28T17:48:28.582Z,99310.25
2022-11-28T17:50:26.578Z,99310.25
2022-11-28T17:52:30.276Z,99309.44
2022-11-28T17:54:28.504Z,99310.16
2022-11-28T17:56:26.985Z,99306.47
2022-11-28T17:58:24.983Z,99306.41
2022-11-28T18:00:22.962Z,99310.06
2022-11-28T18:02:21.016Z,99308.56
2022-11-28T18:04:19.446Z,99310.00
2022-11-28T18:06:17.811Z,99310.69
2022-11-28T18:08:19.243Z,99312.16
2022-11-28T18:10:19.816Z,99311.38
2022-11-28T18:12:17.837Z,99310.59
2022-11-28T18:14:18.208Z,99315.69
2022-11-28T18:16:17.790Z,99317.13
2022-11-28T18:18:15.920Z,99306.91
2022-11-28T18:20:13.913Z,99324.44
2022-11-28T18:22:12.010Z,99314.19
2022-11-28T18:24:09.995Z,99314.88
2022-11-28T18:26:08.178Z,99307.59
2022-11-28T18:28:06.219Z,99313.41
2022-11-28T18:30:04.265Z,99311.97
2022-11-28T18:32:02.296Z,99322.94
2022-11-28T18:34:02.005Z,99317.78
2022-11-28T18:36:00.504Z,99311.97
2022-11-28T18:37:58.537Z,99317.78
2022-11-28T18:39:56.579Z,99325.13
2022-11-28T18:41:54.807Z,99314.16
2022-11-28T18:43:52.830Z,99322.19
2022-11-28T18:45:51.687Z,99325.13
2022-11-28T18:47:49.937Z,99327.31
2022-11-28T18:49:47.971Z,99320.72
2022-11-28T18:51:46.017Z,99325.13
2022-11-28T18:53:44.039Z,99322.19
2022-11-28T18:55:42.266Z,99326.56
2022-11-28T18:57:41.457Z,99325.09
2022-11-28T18:59:39.485Z,99326.53
2022-11-28T19:01:37.548Z,99330.19
2022-11-28T19:03:35.551Z,99333.13
2022-11-28T19:05:38.953Z,99338.97
2022-11-28T19:07:37.481Z,99330.88
2022-11-28T19:09:35.579Z,99334.53
2022-11-28T19:11:33.609Z,99328.69
2022-11-28T19:13:31.684Z,99333.03
2022-11-28T19:15:29.887Z,99346.91
2022-11-28T19:17:27.929Z,99341.03
2022-11-28T19:19:25.896Z,99332.22
2022-11-28T19:21:23.892Z,99342.41
2022-11-28T19:23:21.921Z,99338.78
2022-11-28T19:25:19.956Z,99338.03
2022-11-28T19:27:18.032Z,99335.81
2022-11-28T19:29:16.112Z,99345.31
2022-11-28T19:31:15.165Z,99343.81
2022-11-28T19:33:13.296Z,99346.00
2022-11-28T19:35:11.344Z,99340.88
2022-11-28T19:37:09.452Z,99351.81
2022-11-28T19:39:07.573Z,99350.31
2022-11-28T19:41:05.569Z,99348.13
2022-11-28T19:43:03.921Z,99352.47
2022-11-28T19:45:01.935Z,99348.81
2022-11-28T19:47:00.946Z,99347.31
2022-11-28T19:48:58.955Z,99351.00
2022-11-28T19:50:56.974Z,99352.41
2022-11-28T19:52:54.980Z,99357.53
2022-11-28T19:54:53.061Z,99359.00
2022-11-28T19:56:51.120Z,99358.25
2022-11-28T19:58:49.145Z,99367.75
2022-11-28T20:00:47.188Z,99370.69
2022-11-28T20:02:45.251Z,99375.84
2022-11-28T20:04:43.533Z,99373.66
2022-11-28T20:06:41.506Z,99366.34
2022-11-28T20:08:39.630Z,99374.44
2022-11-28T20:10:37.749Z,99375.13
2022-11-28T20:12:35.705Z,99368.59
2022-11-28T20:14:33.804Z,99379.59
2022-11-28T20:16:31.966Z,99369.34
2022-11-28T20:18:29.980Z,99384.69
2022-11-28T20:20:27.915Z,99382.50
2022-11-28T20:22:25.994Z,99386.13
2022-11-28T20:24:23.987Z,99385.44
2022-11-28T20:26:22.926Z,99391.25
2022-11-28T20:28:20.966Z,99390.53
2022-11-28T20:30:19.017Z,99386.84
2022-11-28T20:32:17.075Z,99386.84
2022-11-28T20:34:15.102Z,99378.09
2022-11-28T20:36:13.564Z,99394.88
2022-11-28T20:38:11.618Z,99394.88
2022-11-28T20:40:09.603Z,99390.47
2022-11-28T20:42:07.635Z,99391.19
2022-11-28T20:44:05.761Z,99391.91
2022-11-28T20:46:04.564Z,99397.03
2022-11-28T20:48:02.663Z,99397.72
2022-11-28T20:50:01.719Z,99393.31
2022-11-28T20:51:59.736Z,99400.59
2022-11-28T20:53:57.799Z,99403.53
2022-11-28T20:55:55.841Z,99408.63
2022-11-28T20:57:53.847Z,99407.88
2022-11-28T20:59:52.450Z,99407.09
2022-11-28T21:01:50.504Z,99412.94
2022-11-28T21:03:48.566Z,99406.28
2022-11-28T21:05:46.621Z,99412.13
2022-11-28T21:07:44.713Z,99407.03
2022-11-28T21:09:43.024Z,99413.59
2022-11-28T21:11:56.827Z,99404.09
2022-11-28T21:13:56.233Z,99418.69
2022-11-28T21:15:54.622Z,99410.66
2022-11-28T21:17:52.582Z,99412.09
2022-11-28T21:19:50.820Z,99405.56
2022-11-28T21:21:48.831Z,99411.38
2022-11-28T21:23:46.885Z,99409.22
2022-11-28T21:25:44.922Z,99411.44
2022-11-28T21:27:42.944Z,99415.13
2022-11-28T21:29:43.014Z,99420.25
2022-11-28T21:31:41.387Z,99413.72
2022-11-28T21:33:39.470Z,99419.56
2022-11-28T21:35:37.588Z,99426.16
2022-11-28T21:37:35.573Z,99425.47
2022-11-28T21:39:33.896Z,99425.50
2022-11-28T21:41:31.898Z,99431.34
2022-11-28T21:43:29.909Z,99418.91
2022-11-28T21:45:27.947Z,99421.91
2022-11-28T21:47:25.989Z,99418.97
2022-11-28T21:49:23.983Z,99424.81
2022-11-28T21:51:21.949Z,99428.47
2022-11-28T21:53:20.047Z,99424.81
2022-11-28T21:55:18.029Z,99430.66
2022-11-28T21:57:16.038Z,99424.06
2022-11-28T21:59:14.015Z,99426.25
2022-11-28T22:01:12.203Z,99429.16
2022-11-28T22:03:14.117Z,99423.31
2022-11-28T22:05:12.566Z,99429.88
2022-11-28T22:07:10.571Z,99429.88
2022-11-28T22:09:09.927Z,99429.13
2022-11-28T22:11:11.106Z,99425.47
2022-11-28T22:13:09.470Z,99433.50
2022-11-28T22:15:07.455Z,99428.34
2022-11-28T22:17:05.494Z,99437.09
2022-11-28T22:19:03.992Z,99437.06
2022-11-28T22:21:06.497Z,99438.50
2022-11-28T22:23:07.544Z,99430.47
2022-11-28T22:25:05.545Z,99434.84
2022-11-28T22:27:03.538Z,99433.31
2022-11-28T22:29:04.016Z,99442.06
2022-11-28T22:31:02.182Z,99445.00
2022-11-28T22:33:00.313Z,99438.38
2022-11-28T22:34:58.307Z,99443.47
2022-11-28T22:36:56.337Z,99437.63
2022-11-28T22:38:54.379Z,99444.91
2022-11-28T22:40:52.573Z,99443.41
2022-11-28T22:42:50.571Z,99439.78
2022-11-28T22:44:48.596Z,99441.94
2022-11-28T22:46:46.572Z,99444.88
2022-11-28T22:48:44.589Z,99446.34
2022-11-28T22:50:42.623Z,99441.22
2022-11-28T22:52:40.706Z,99442.69
2022-11-28T22:54:38.768Z,99448.53
2022-11-28T22:56:37.403Z,99452.91
2022-11-28T22:58:39.425Z,99450.00
2022-11-28T23:00:40.380Z,99452.91
2022-11-28T23:02:38.535Z,99455.16
2022-11-28T23:04:37.878Z,99450.06
2022-11-28T23:06:35.902Z,99450.81
2022-11-28T23:08:34.033Z,99451.56
2022-11-28T23:10:32.140Z,99455.91
2022-11-28T23:12:30.132Z,99453.72
2022-11-28T23:14:28.149Z,99460.31
2022-11-28T23:16:26.229Z,99454.47
2022-11-28T23:18:24.261Z,99455.19
2022-11-28T23:20:22.420Z,99452.97
2022-11-28T23:22:20.462Z,99450.81
2022-11-28T23:24:18.758Z,99449.31
2022-11-28T23:26:16.788Z,99451.50
2022-11-28T23:28:14.831Z,99454.41
2022-11-28T23:30:12.861Z,99458.75
2022-11-28T23:32:10.853Z,99456.59
2022-11-28T23:34:08.978Z,99455.09
2022-11-28T23:36:07.000Z,99458.72
2022-11-28T23:38:04.982Z,99455.06
2022-11-28T23:40:02.988Z,99458.72
2022-11-28T23:42:01.209Z,99454.31
2022-11-28T23:43:59.226Z,99449.91
2022-11-28T23:45:57.527Z,99455.03
2022-11-28T23:47:55.501Z,99447.69
2022-11-28T23:49:53.503Z,99458.63
2022-11-28T23:51:51.466Z,99457.16
2022-11-28T23:53:49.858Z,99459.31
2022-11-28T23:55:49.021Z,99457.13
2022-11-28T23:57:47.111Z,99462.22
2022-11-28T23:59:45.212Z,99464.38
